sensor_id;sensor_type;location;lat;lon;timestamp;P1;durP1;ratioP1;P2;durP2;ratioP2
16665;SDS011;8446;50.998;6.250;2023-02-11T00:00:58;17.67;;;10.63;;
16665;SDS011;8446;50.998;6.250;2023-02-11T00:03:25;22.75;;;12.57;;
16665;SDS011;8446;50.998;6.250;2023-02-11T00:05:56;25.75;;;12.95;;
16665;SDS011;8446;50.998;6.250;2023-02-11T00:08:25;25.27;;;13.25;;
16665;SDS011;8446;50.998;6.250;2023-02-11T00:10:52;24.20;;;12.57;;
16665;SDS011;8446;50.998;6.250;2023-02-11T00:13:19;27.27;;;13.18;;
16665;SDS011;8446;50.998;6.250;2023-02-11T00:15:46;29.30;;;12.73;;
16665;SDS011;8446;50.998;6.250;2023-02-11T00:18:14;22.30;;;11.82;;
16665;SDS011;8446;50.998;6.250;2023-02-11T00:20:41;25.48;;;14.07;;
16665;SDS011;8446;50.998;6.250;2023-02-11T00:23:09;24.65;;;13.38;;
16665;SDS011;8446;50.998;6.250;2023-02-11T00:25:38;29.77;;;13.60;;
16665;SDS011;8446;50.998;6.250;2023-02-11T00:28:06;23.17;;;13.93;;
16665;SDS011;8446;50.998;6.250;2023-02-11T00:30:33;24.98;;;13.35;;
16665;SDS011;8446;50.998;6.250;2023-02-11T00:33:00;27.08;;;12.55;;
16665;SDS011;8446;50.998;6.250;2023-02-11T00:35:28;27.02;;;13.45;;
16665;SDS011;8446;50.998;6.250;2023-02-11T00:37:55;27.58;;;12.82;;
16665;SDS011;8446;50.998;6.250;2023-02-11T00:40:22;26.25;;;12.55;;
16665;SDS011;8446;50.998;6.250;2023-02-11T00:42:50;20.90;;;10.60;;
16665;SDS011;8446;50.998;6.250;2023-02-11T00:45:17;26.38;;;13.55;;
16665;SDS011;8446;50.998;6.250;2023-02-11T00:47:45;28.35;;;13.65;;
16665;SDS011;8446;50.998;6.250;2023-02-11T00:50:13;26.92;;;13.90;;
16665;SDS011;8446;50.998;6.250;2023-02-11T00:52:40;27.73;;;14.95;;
16665;SDS011;8446;50.998;6.250;2023-02-11T00:55:07;25.83;;;14.20;;
16665;SDS011;8446;50.998;6.250;2023-02-11T00:57:34;33.08;;;14.75;;
16665;SDS011;8446;50.998;6.250;2023-02-11T01:00:03;23.45;;;11.52;;
16665;SDS011;8446;50.998;6.250;2023-02-11T01:02:30;30.50;;;15.20;;
16665;SDS011;8446;50.998;6.250;2023-02-11T01:04:57;22.17;;;13.43;;
16665;SDS011;8446;50.998;6.250;2023-02-11T01:07:24;26.10;;;11.63;;
16665;SDS011;8446;50.998;6.250;2023-02-11T01:09:51;24.27;;;13.18;;
16665;SDS011;8446;50.998;6.250;2023-02-11T01:12:19;25.55;;;14.60;;
16665;SDS011;8446;50.998;6.250;2023-02-11T01:14:46;25.38;;;12.65;;
16665;SDS011;8446;50.998;6.250;2023-02-11T01:17:15;36.92;;;14.30;;
16665;SDS011;8446;50.998;6.250;2023-02-11T01:19:42;28.55;;;14.05;;
16665;SDS011;8446;50.998;6.250;2023-02-11T01:22:09;23.48;;;13.20;;
16665;SDS011;8446;50.998;6.250;2023-02-11T01:24:36;29.63;;;12.82;;
16665;SDS011;8446;50.998;6.250;2023-02-11T01:27:03;16.17;;;8.95;;
16665;SDS011;8446;50.998;6.250;2023-02-11T01:29:30;24.75;;;13.43;;
16665;SDS011;8446;50.998;6.250;2023-02-11T01:31:58;27.35;;;13.18;;
16665;SDS011;8446;50.998;6.250;2023-02-11T01:34:27;43.30;;;14.13;;
16665;SDS011;8446;50.998;6.250;2023-02-11T01:36:55;30.02;;;13.90;;
16665;SDS011;8446;50.998;6.250;2023-02-11T01:39:22;29.88;;;14.18;;
16665;SDS011;8446;50.998;6.250;2023-02-11T01:41:50;30.42;;;13.73;;
16665;SDS011;8446;50.998;6.250;2023-02-11T01:44:21;19.70;;;9.77;;
16665;SDS011;8446;50.998;6.250;2023-02-11T01:46:48;23.35;;;12.45;;
16665;SDS011;8446;50.998;6.250;2023-02-11T01:49:16;25.65;;;12.85;;
16665;SDS011;8446;50.998;6.250;2023-02-11T01:51:46;25.42;;;11.82;;
16665;SDS011;8446;50.998;6.250;2023-02-11T01:54:15;24.05;;;13.40;;
16665;SDS011;8446;50.998;6.250;2023-02-11T01:57:01;27.52;;;13.13;;
16665;SDS011;8446;50.998;6.250;2023-02-11T01:59:51;26.05;;;12.02;;
16665;SDS011;8446;50.998;6.250;2023-02-11T02:02:21;31.70;;;14.70;;
16665;SDS011;8446;50.998;6.250;2023-02-11T02:04:51;22.92;;;12.90;;
16665;SDS011;8446;50.998;6.250;2023-02-11T02:07:21;25.75;;;13.07;;
16665;SDS011;8446;50.998;6.250;2023-02-11T02:09:51;23.02;;;12.27;;
16665;SDS011;8446;50.998;6.250;2023-02-11T02:12:22;27.25;;;11.75;;
16665;SDS011;8446;50.998;6.250;2023-02-11T02:14:49;24.85;;;13.18;;
16665;SDS011;8446;50.998;6.250;2023-02-11T02:17:21;37.40;;;13.45;;
16665;SDS011;8446;50.998;6.250;2023-02-11T02:19:57;23.55;;;11.95;;
16665;SDS011;8446;50.998;6.250;2023-02-11T02:22:34;26.60;;;12.80;;
16665;SDS011;8446;50.998;6.250;2023-02-11T02:25:11;22.27;;;12.50;;
16665;SDS011;8446;50.998;6.250;2023-02-11T02:27:44;25.70;;;13.43;;
16665;SDS011;8446;50.998;6.250;2023-02-11T02:32:59;21.13;;;10.85;;
16665;SDS011;8446;50.998;6.250;2023-02-11T02:35:31;24.58;;;12.73;;
16665;SDS011;8446;50.998;6.250;2023-02-11T02:38:02;21.90;;;11.55;;
16665;SDS011;8446;50.998;6.250;2023-02-11T02:40:32;23.50;;;12.80;;
16665;SDS011;8446;50.998;6.250;2023-02-11T02:43:00;30.52;;;14.38;;
16665;SDS011;8446;50.998;6.250;2023-02-11T02:45:28;27.42;;;11.38;;
16665;SDS011;8446;50.998;6.250;2023-02-11T02:47:55;29.00;;;13.25;;
16665;SDS011;8446;50.998;6.250;2023-02-11T02:50:25;37.88;;;13.98;;
16665;SDS011;8446;50.998;6.250;2023-02-11T02:52:55;25.05;;;13.20;;
16665;SDS011;8446;50.998;6.250;2023-02-11T02:55:39;26.67;;;14.05;;
16665;SDS011;8446;50.998;6.250;2023-02-11T02:58:20;32.85;;;14.75;;
16665;SDS011;8446;50.998;6.250;2023-02-11T03:00:51;37.60;;;13.50;;
16665;SDS011;8446;50.998;6.250;2023-02-11T03:03:25;26.83;;;12.57;;
16665;SDS011;8446;50.998;6.250;2023-02-11T03:05:57;28.15;;;13.65;;
16665;SDS011;8446;50.998;6.250;2023-02-11T03:08:29;29.05;;;14.77;;
16665;SDS011;8446;50.998;6.250;2023-02-11T03:10:58;29.40;;;13.40;;
16665;SDS011;8446;50.998;6.250;2023-02-11T03:13:27;34.42;;;13.48;;
16665;SDS011;8446;50.998;6.250;2023-02-11T03:15:57;23.50;;;12.35;;
16665;SDS011;8446;50.998;6.250;2023-02-11T03:18:26;32.47;;;13.07;;
16665;SDS011;8446;50.998;6.250;2023-02-11T03:20:54;24.20;;;11.88;;
16665;SDS011;8446;50.998;6.250;2023-02-11T03:23:25;24.60;;;12.27;;
16665;SDS011;8446;50.998;6.250;2023-02-11T03:25:55;23.05;;;12.20;;
16665;SDS011;8446;50.998;6.250;2023-02-11T03:28:24;25.20;;;11.82;;
16665;SDS011;8446;50.998;6.250;2023-02-11T03:30:54;29.17;;;12.80;;
16665;SDS011;8446;50.998;6.250;2023-02-11T03:33:23;30.40;;;13.50;;
16665;SDS011;8446;50.998;6.250;2023-02-11T03:35:52;33.30;;;13.27;;
16665;SDS011;8446;50.998;6.250;2023-02-11T03:38:20;19.50;;;11.77;;
16665;SDS011;8446;50.998;6.250;2023-02-11T03:40:49;21.85;;;11.43;;
16665;SDS011;8446;50.998;6.250;2023-02-11T03:43:18;28.65;;;12.73;;
16665;SDS011;8446;50.998;6.250;2023-02-11T03:45:47;27.15;;;12.68;;
16665;SDS011;8446;50.998;6.250;2023-02-11T03:48:15;31.92;;;13.68;;
16665;SDS011;8446;50.998;6.250;2023-02-11T03:50:44;39.67;;;13.48;;
16665;SDS011;8446;50.998;6.250;2023-02-11T03:53:11;24.95;;;12.68;;
16665;SDS011;8446;50.998;6.250;2023-02-11T03:55:40;22.75;;;12.60;;
16665;SDS011;8446;50.998;6.250;2023-02-11T03:58:09;27.52;;;12.82;;
16665;SDS011;8446;50.998;6.250;2023-02-11T04:00:37;27.38;;;11.95;;
16665;SDS011;8446;50.998;6.250;2023-02-11T04:03:05;21.23;;;11.43;;
16665;SDS011;8446;50.998;6.250;2023-02-11T04:05:32;30.10;;;13.65;;
16665;SDS011;8446;50.998;6.250;2023-02-11T04:08:00;14.95;;;8.93;;
16665;SDS011;8446;50.998;6.250;2023-02-11T04:10:27;15.05;;;8.98;;
16665;SDS011;8446;50.998;6.250;2023-02-11T04:12:54;34.53;;;13.55;;
16665;SDS011;8446;50.998;6.250;2023-02-11T04:15:22;25.83;;;10.55;;
16665;SDS011;8446;50.998;6.250;2023-02-11T04:17:50;20.65;;;11.48;;
16665;SDS011;8446;50.998;6.250;2023-02-11T04:20:17;22.15;;;11.43;;
16665;SDS011;8446;50.998;6.250;2023-02-11T04:22:44;19.30;;;11.23;;
16665;SDS011;8446;50.998;6.250;2023-02-11T04:25:12;29.40;;;12.73;;
16665;SDS011;8446;50.998;6.250;2023-02-11T04:27:39;25.75;;;10.65;;
16665;SDS011;8446;50.998;6.250;2023-02-11T04:30:08;22.55;;;9.30;;
16665;SDS011;8446;50.998;6.250;2023-02-11T04:32:37;22.75;;;12.45;;
16665;SDS011;8446;50.998;6.250;2023-02-11T04:35:04;29.15;;;12.23;;
16665;SDS011;8446;50.998;6.250;2023-02-11T04:37:32;25.35;;;13.07;;
16665;SDS011;8446;50.998;6.250;2023-02-11T04:39:59;29.48;;;12.05;;
16665;SDS011;8446;50.998;6.250;2023-02-11T04:42:26;31.08;;;12.32;;
16665;SDS011;8446;50.998;6.250;2023-02-11T04:44:53;30.88;;;13.07;;
16665;SDS011;8446;50.998;6.250;2023-02-11T04:47:21;26.08;;;13.35;;
16665;SDS011;8446;50.998;6.250;2023-02-11T04:49:49;31.27;;;13.27;;
16665;SDS011;8446;50.998;6.250;2023-02-11T04:52:16;29.58;;;12.45;;
16665;SDS011;8446;50.998;6.250;2023-02-11T04:54:43;28.42;;;11.82;;
16665;SDS011;8446;50.998;6.250;2023-02-11T04:57:10;29.30;;;14.63;;
16665;SDS011;8446;50.998;6.250;2023-02-11T04:59:38;27.33;;;11.93;;
16665;SDS011;8446;50.998;6.250;2023-02-11T05:02:05;30.48;;;14.45;;
16665;SDS011;8446;50.998;6.250;2023-02-11T05:04:32;28.02;;;13.63;;
16665;SDS011;8446;50.998;6.250;2023-02-11T05:07:01;45.80;;;14.18;;
16665;SDS011;8446;50.998;6.250;2023-02-11T05:09:28;25.40;;;13.25;;
16665;SDS011;8446;50.998;6.250;2023-02-11T05:11:55;27.08;;;13.18;;
16665;SDS011;8446;50.998;6.250;2023-02-11T05:14:22;29.25;;;14.63;;
16665;SDS011;8446;50.998;6.250;2023-02-11T05:16:49;33.15;;;13.80;;
16665;SDS011;8446;50.998;6.250;2023-02-11T05:19:17;27.08;;;11.88;;
16665;SDS011;8446;50.998;6.250;2023-02-11T05:21:44;26.95;;;12.80;;
16665;SDS011;8446;50.998;6.250;2023-02-11T05:24:12;31.20;;;13.45;;
16665;SDS011;8446;50.998;6.250;2023-02-11T05:26:39;29.10;;;12.50;;
16665;SDS011;8446;50.998;6.250;2023-02-11T05:29:06;30.50;;;13.52;;
16665;SDS011;8446;50.998;6.250;2023-02-11T05:31:33;28.33;;;10.98;;
16665;SDS011;8446;50.998;6.250;2023-02-11T05:34:00;26.25;;;13.65;;
16665;SDS011;8446;50.998;6.250;2023-02-11T05:36:28;23.40;;;12.63;;
16665;SDS011;8446;50.998;6.250;2023-02-11T05:38:56;30.88;;;12.65;;
16665;SDS011;8446;50.998;6.250;2023-02-11T05:41:24;28.02;;;13.40;;
16665;SDS011;8446;50.998;6.250;2023-02-11T05:43:51;31.48;;;12.98;;
16665;SDS011;8446;50.998;6.250;2023-02-11T05:46:18;30.70;;;14.02;;
16665;SDS011;8446;50.998;6.250;2023-02-11T05:48:45;30.00;;;14.52;;
16665;SDS011;8446;50.998;6.250;2023-02-11T05:51:13;32.60;;;13.23;;
16665;SDS011;8446;50.998;6.250;2023-02-11T05:53:40;26.08;;;12.80;;
16665;SDS011;8446;50.998;6.250;2023-02-11T05:56:07;25.73;;;12.90;;
16665;SDS011;8446;50.998;6.250;2023-02-11T05:58:35;31.83;;;14.18;;
16665;SDS011;8446;50.998;6.250;2023-02-11T06:01:03;30.17;;;14.05;;
16665;SDS011;8446;50.998;6.250;2023-02-11T06:03:30;26.38;;;13.27;;
16665;SDS011;8446;50.998;6.250;2023-02-11T06:05:58;38.30;;;14.45;;
16665;SDS011;8446;50.998;6.250;2023-02-11T06:08:25;26.23;;;13.32;;
16665;SDS011;8446;50.998;6.250;2023-02-11T06:10:52;31.92;;;12.85;;
16665;SDS011;8446;50.998;6.250;2023-02-11T06:13:19;24.27;;;13.30;;
16665;SDS011;8446;50.998;6.250;2023-02-11T06:15:55;25.77;;;14.55;;
16665;SDS011;8446;50.998;6.250;2023-02-11T06:18:22;31.20;;;12.63;;
16665;SDS011;8446;50.998;6.250;2023-02-11T06:20:49;34.72;;;13.30;;
16665;SDS011;8446;50.998;6.250;2023-02-11T06:23:16;32.58;;;15.18;;
16665;SDS011;8446;50.998;6.250;2023-02-11T06:25:43;29.98;;;15.00;;
16665;SDS011;8446;50.998;6.250;2023-02-11T06:28:10;35.58;;;14.18;;
16665;SDS011;8446;50.998;6.250;2023-02-11T06:30:37;28.88;;;13.70;;
16665;SDS011;8446;50.998;6.250;2023-02-11T06:33:06;42.20;;;13.75;;
16665;SDS011;8446;50.998;6.250;2023-02-11T06:35:33;34.75;;;14.10;;
16665;SDS011;8446;50.998;6.250;2023-02-11T06:38:00;37.30;;;16.75;;
16665;SDS011;8446;50.998;6.250;2023-02-11T06:40:27;37.08;;;15.48;;
16665;SDS011;8446;50.998;6.250;2023-02-11T06:42:55;25.90;;;12.40;;
16665;SDS011;8446;50.998;6.250;2023-02-11T06:45:22;39.75;;;16.02;;
16665;SDS011;8446;50.998;6.250;2023-02-11T06:47:50;38.92;;;15.55;;
16665;SDS011;8446;50.998;6.250;2023-02-11T06:50:19;30.88;;;14.27;;
16665;SDS011;8446;50.998;6.250;2023-02-11T06:52:46;34.95;;;13.20;;
16665;SDS011;8446;50.998;6.250;2023-02-11T06:55:13;31.67;;;13.18;;
16665;SDS011;8446;50.998;6.250;2023-02-11T06:57:40;30.40;;;15.27;;
16665;SDS011;8446;50.998;6.250;2023-02-11T07:00:08;27.50;;;12.68;;
16665;SDS011;8446;50.998;6.250;2023-02-11T07:02:35;47.80;;;15.65;;
16665;SDS011;8446;50.998;6.250;2023-02-11T07:05:03;42.17;;;17.02;;
16665;SDS011;8446;50.998;6.250;2023-02-11T07:07:32;33.83;;;13.82;;
16665;SDS011;8446;50.998;6.250;2023-02-11T07:09:59;32.65;;;14.20;;
16665;SDS011;8446;50.998;6.250;2023-02-11T07:12:27;31.55;;;15.27;;
16665;SDS011;8446;50.998;6.250;2023-02-11T07:14:54;33.80;;;16.40;;
16665;SDS011;8446;50.998;6.250;2023-02-11T07:17:21;44.95;;;16.75;;
16665;SDS011;8446;50.998;6.250;2023-02-11T07:19:48;31.23;;;14.73;;
16665;SDS011;8446;50.998;6.250;2023-02-11T07:22:16;31.60;;;14.90;;
16665;SDS011;8446;50.998;6.250;2023-02-11T07:24:44;34.92;;;15.57;;
16665;SDS011;8446;50.998;6.250;2023-02-11T07:27:11;33.28;;;13.55;;
16665;SDS011;8446;50.998;6.250;2023-02-11T07:29:38;30.52;;;15.13;;
16665;SDS011;8446;50.998;6.250;2023-02-11T07:32:07;43.65;;;17.45;;
16665;SDS011;8446;50.998;6.250;2023-02-11T07:34:34;36.45;;;15.02;;
16665;SDS011;8446;50.998;6.250;2023-02-11T07:37:01;44.67;;;15.07;;
16665;SDS011;8446;50.998;6.250;2023-02-11T07:39:28;29.77;;;14.63;;
16665;SDS011;8446;50.998;6.250;2023-02-11T07:41:57;35.30;;;14.57;;
16665;SDS011;8446;50.998;6.250;2023-02-11T07:44:24;43.88;;;15.35;;
16665;SDS011;8446;50.998;6.250;2023-02-11T07:46:51;37.42;;;15.90;;
16665;SDS011;8446;50.998;6.250;2023-02-11T07:49:18;27.95;;;12.20;;
16665;SDS011;8446;50.998;6.250;2023-02-11T07:51:45;41.88;;;16.80;;
16665;SDS011;8446;50.998;6.250;2023-02-11T07:54:13;36.15;;;15.55;;
16665;SDS011;8446;50.998;6.250;2023-02-11T07:56:40;31.05;;;13.98;;
16665;SDS011;8446;50.998;6.250;2023-02-11T07:59:09;41.90;;;15.88;;
16665;SDS011;8446;50.998;6.250;2023-02-11T08:01:37;25.63;;;11.15;;
16665;SDS011;8446;50.998;6.250;2023-02-11T08:04:04;41.78;;;15.70;;
16665;SDS011;8446;50.998;6.250;2023-02-11T08:06:32;29.73;;;15.02;;
16665;SDS011;8446;50.998;6.250;2023-02-11T08:09:02;36.03;;;17.00;;
16665;SDS011;8446;50.998;6.250;2023-02-11T08:11:30;36.65;;;15.15;;
16665;SDS011;8446;50.998;6.250;2023-02-11T08:13:57;37.08;;;16.65;;
16665;SDS011;8446;50.998;6.250;2023-02-11T08:16:26;34.03;;;15.13;;
16665;SDS011;8446;50.998;6.250;2023-02-11T08:18:54;43.33;;;16.00;;
16665;SDS011;8446;50.998;6.250;2023-02-11T08:21:22;21.95;;;10.43;;
16665;SDS011;8446;50.998;6.250;2023-02-11T08:23:49;35.33;;;14.27;;
16665;SDS011;8446;50.998;6.250;2023-02-11T08:26:17;31.88;;;14.25;;
16665;SDS011;8446;50.998;6.250;2023-02-11T08:28:45;34.28;;;14.52;;
16665;SDS011;8446;50.998;6.250;2023-02-11T08:31:14;29.80;;;15.00;;
16665;SDS011;8446;50.998;6.250;2023-02-11T08:33:43;39.65;;;15.10;;
16665;SDS011;8446;50.998;6.250;2023-02-11T08:36:11;33.00;;;13.45;;
16665;SDS011;8446;50.998;6.250;2023-02-11T08:38:38;37.97;;;15.30;;
16665;SDS011;8446;50.998;6.250;2023-02-11T08:41:05;34.08;;;16.45;;
16665;SDS011;8446;50.998;6.250;2023-02-11T08:43:33;31.38;;;15.80;;
16665;SDS011;8446;50.998;6.250;2023-02-11T08:46:00;43.47;;;14.93;;
16665;SDS011;8446;50.998;6.250;2023-02-11T08:48:27;43.45;;;16.58;;
16665;SDS011;8446;50.998;6.250;2023-02-11T08:50:56;32.42;;;15.35;;
16665;SDS011;8446;50.998;6.250;2023-02-11T08:53:23;27.20;;;12.85;;
16665;SDS011;8446;50.998;6.250;2023-02-11T08:55:51;33.78;;;14.48;;
16665;SDS011;8446;50.998;6.250;2023-02-11T08:58:19;34.13;;;13.88;;
16665;SDS011;8446;50.998;6.250;2023-02-11T09:00:47;24.80;;;13.63;;
16665;SDS011;8446;50.998;6.250;2023-02-11T09:03:14;36.70;;;14.93;;
16665;SDS011;8446;50.998;6.250;2023-02-11T09:05:41;29.67;;;14.38;;
16665;SDS011;8446;50.998;6.250;2023-02-11T09:08:10;30.45;;;14.27;;
16665;SDS011;8446;50.998;6.250;2023-02-11T09:10:37;28.90;;;14.10;;
16665;SDS011;8446;50.998;6.250;2023-02-11T09:13:05;47.53;;;14.63;;
16665;SDS011;8446;50.998;6.250;2023-02-11T09:15:32;34.05;;;14.68;;
16665;SDS011;8446;50.998;6.250;2023-02-11T09:17:59;29.25;;;14.77;;
16665;SDS011;8446;50.998;6.250;2023-02-11T09:20:27;30.80;;;14.23;;
16665;SDS011;8446;50.998;6.250;2023-02-11T09:22:55;30.67;;;12.70;;
16665;SDS011;8446;50.998;6.250;2023-02-11T09:25:24;33.05;;;14.45;;
16665;SDS011;8446;50.998;6.250;2023-02-11T09:27:51;34.72;;;14.63;;
16665;SDS011;8446;50.998;6.250;2023-02-11T09:30:19;32.85;;;15.02;;
16665;SDS011;8446;50.998;6.250;2023-02-11T09:32:46;35.33;;;17.02;;
16665;SDS011;8446;50.998;6.250;2023-02-11T09:35:13;32.03;;;16.33;;
16665;SDS011;8446;50.998;6.250;2023-02-11T09:37:40;39.95;;;15.30;;
16665;SDS011;8446;50.998;6.250;2023-02-11T09:40:08;35.65;;;16.23;;
16665;SDS011;8446;50.998;6.250;2023-02-11T09:42:38;38.13;;;15.73;;
16665;SDS011;8446;50.998;6.250;2023-02-11T09:45:09;35.20;;;15.63;;
16665;SDS011;8446;50.998;6.250;2023-02-11T09:47:42;37.65;;;15.20;;
16665;SDS011;8446;50.998;6.250;2023-02-11T09:50:12;42.10;;;15.90;;
16665;SDS011;8446;50.998;6.250;2023-02-11T09:52:40;36.30;;;17.00;;
16665;SDS011;8446;50.998;6.250;2023-02-11T09:55:14;30.20;;;12.85;;
16665;SDS011;8446;50.998;6.250;2023-02-11T09:57:44;35.70;;;15.57;;
16665;SDS011;8446;50.998;6.250;2023-02-11T10:00:18;40.90;;;17.05;;
16665;SDS011;8446;50.998;6.250;2023-02-11T10:02:52;31.85;;;16.20;;
16665;SDS011;8446;50.998;6.250;2023-02-11T10:05:24;37.63;;;17.02;;
16665;SDS011;8446;50.998;6.250;2023-02-11T10:07:55;31.42;;;15.05;;
16665;SDS011;8446;50.998;6.250;2023-02-11T10:10:30;36.13;;;16.13;;
16665;SDS011;8446;50.998;6.250;2023-02-11T10:13:13;30.23;;;14.38;;
16665;SDS011;8446;50.998;6.250;2023-02-11T10:15:44;42.20;;;16.95;;
16665;SDS011;8446;50.998;6.250;2023-02-11T10:18:17;38.40;;;15.98;;
16665;SDS011;8446;50.998;6.250;2023-02-11T10:20:48;43.38;;;17.25;;
16665;SDS011;8446;50.998;6.250;2023-02-11T10:23:22;35.13;;;16.42;;
16665;SDS011;8446;50.998;6.250;2023-02-11T10:25:51;41.17;;;18.10;;
16665;SDS011;8446;50.998;6.250;2023-02-11T10:28:22;36.15;;;17.00;;
16665;SDS011;8446;50.998;6.250;2023-02-11T10:30:51;44.33;;;17.67;;
16665;SDS011;8446;50.998;6.250;2023-02-11T10:33:23;34.33;;;15.18;;
16665;SDS011;8446;50.998;6.250;2023-02-11T10:35:51;38.60;;;15.02;;
16665;SDS011;8446;50.998;6.250;2023-02-11T10:38:18;38.63;;;15.75;;
16665;SDS011;8446;50.998;6.250;2023-02-11T10:40:45;41.97;;;18.27;;
16665;SDS011;8446;50.998;6.250;2023-02-11T10:43:14;43.85;;;16.38;;
16665;SDS011;8446;50.998;6.250;2023-02-11T10:45:43;44.92;;;16.40;;
16665;SDS011;8446;50.998;6.250;2023-02-11T10:51:03;43.33;;;18.02;;
16665;SDS011;8446;50.998;6.250;2023-02-11T10:53:32;41.72;;;17.45;;
16665;SDS011;8446;50.998;6.250;2023-02-11T10:56:00;41.83;;;17.30;;
16665;SDS011;8446;50.998;6.250;2023-02-11T10:58:30;41.15;;;15.73;;
16665;SDS011;8446;50.998;6.250;2023-02-11T11:00:59;52.78;;;19.20;;
16665;SDS011;8446;50.998;6.250;2023-02-11T11:03:27;41.35;;;18.05;;
16665;SDS011;8446;50.998;6.250;2023-02-11T11:05:56;45.63;;;17.17;;
16665;SDS011;8446;50.998;6.250;2023-02-11T11:08:36;40.35;;;19.20;;
16665;SDS011;8446;50.998;6.250;2023-02-11T11:11:04;41.55;;;17.02;;
16665;SDS011;8446;50.998;6.250;2023-02-11T11:13:32;37.00;;;18.83;;
16665;SDS011;8446;50.998;6.250;2023-02-11T11:18:50;51.28;;;19.50;;
16665;SDS011;8446;50.998;6.250;2023-02-11T11:21:18;44.70;;;17.40;;
16665;SDS011;8446;50.998;6.250;2023-02-11T11:23:47;44.28;;;18.38;;
16665;SDS011;8446;50.998;6.250;2023-02-11T11:26:15;50.08;;;19.02;;
16665;SDS011;8446;50.998;6.250;2023-02-11T11:28:49;49.72;;;20.02;;
16665;SDS011;8446;50.998;6.250;2023-02-11T11:31:17;47.00;;;19.75;;
16665;SDS011;8446;50.998;6.250;2023-02-11T11:33:46;53.45;;;19.75;;
16665;SDS011;8446;50.998;6.250;2023-02-11T11:36:16;45.47;;;19.08;;
16665;SDS011;8446;50.998;6.250;2023-02-11T11:38:45;45.03;;;19.00;;
16665;SDS011;8446;50.998;6.250;2023-02-11T11:41:19;41.85;;;16.65;;
16665;SDS011;8446;50.998;6.250;2023-02-11T11:43:56;50.85;;;18.52;;
16665;SDS011;8446;50.998;6.250;2023-02-11T11:46:25;52.90;;;20.13;;
16665;SDS011;8446;50.998;6.250;2023-02-11T11:48:53;43.60;;;18.10;;
16665;SDS011;8446;50.998;6.250;2023-02-11T11:51:23;45.53;;;18.33;;
16665;SDS011;8446;50.998;6.250;2023-02-11T11:53:52;51.47;;;19.83;;
16665;SDS011;8446;50.998;6.250;2023-02-11T11:56:23;49.83;;;19.90;;
16665;SDS011;8446;50.998;6.250;2023-02-11T11:58:50;44.90;;;17.27;;
16665;SDS011;8446;50.998;6.250;2023-02-11T12:01:20;52.00;;;19.13;;
16665;SDS011;8446;50.998;6.250;2023-02-11T12:03:57;41.28;;;18.05;;
16665;SDS011;8446;50.998;6.250;2023-02-11T12:06:32;43.70;;;19.52;;
16665;SDS011;8446;50.998;6.250;2023-02-11T12:09:04;42.50;;;18.27;;
16665;SDS011;8446;50.998;6.250;2023-02-11T12:11:37;46.80;;;19.48;;
16665;SDS011;8446;50.998;6.250;2023-02-11T12:14:08;55.85;;;21.08;;
16665;SDS011;8446;50.998;6.250;2023-02-11T12:16:40;62.03;;;21.40;;
16665;SDS011;8446;50.998;6.250;2023-02-11T12:22:15;49.95;;;19.67;;
16665;SDS011;8446;50.998;6.250;2023-02-11T12:24:49;49.58;;;20.10;;
16665;SDS011;8446;50.998;6.250;2023-02-11T12:27:21;56.00;;;21.35;;
16665;SDS011;8446;50.998;6.250;2023-02-11T12:29:54;50.53;;;19.58;;
16665;SDS011;8446;50.998;6.250;2023-02-11T12:32:24;47.63;;;19.10;;
16665;SDS011;8446;50.998;6.250;2023-02-11T12:35:00;49.13;;;20.73;;
16665;SDS011;8446;50.998;6.250;2023-02-11T12:37:34;51.70;;;20.95;;
16665;SDS011;8446;50.998;6.250;2023-02-11T12:40:08;49.05;;;19.52;;
16665;SDS011;8446;50.998;6.250;2023-02-11T12:42:43;57.10;;;20.23;;
16665;SDS011;8446;50.998;6.250;2023-02-11T12:45:34;53.30;;;21.55;;
16665;SDS011;8446;50.998;6.250;2023-02-11T12:48:09;61.13;;;22.13;;
16665;SDS011;8446;50.998;6.250;2023-02-11T12:50:40;66.05;;;21.17;;
16665;SDS011;8446;50.998;6.250;2023-02-11T12:53:25;59.20;;;20.90;;
16665;SDS011;8446;50.998;6.250;2023-02-11T12:55:58;66.43;;;21.90;;
16665;SDS011;8446;50.998;6.250;2023-02-11T12:58:27;60.65;;;22.90;;
16665;SDS011;8446;50.998;6.250;2023-02-11T13:00:58;58.40;;;22.30;;
16665;SDS011;8446;50.998;6.250;2023-02-11T13:03:29;59.78;;;21.25;;
16665;SDS011;8446;50.998;6.250;2023-02-11T13:05:57;57.55;;;22.75;;
16665;SDS011;8446;50.998;6.250;2023-02-11T13:08:29;56.10;;;22.02;;
16665;SDS011;8446;50.998;6.250;2023-02-11T13:10:57;55.03;;;21.90;;
16665;SDS011;8446;50.998;6.250;2023-02-11T13:13:25;57.50;;;22.65;;
16665;SDS011;8446;50.998;6.250;2023-02-11T13:15:55;68.40;;;23.25;;
16665;SDS011;8446;50.998;6.250;2023-02-11T13:18:34;69.05;;;24.65;;
16665;SDS011;8446;50.998;6.250;2023-02-11T13:24:06;53.42;;;22.15;;
16665;SDS011;8446;50.998;6.250;2023-02-11T13:26:38;75.45;;;22.55;;
16665;SDS011;8446;50.998;6.250;2023-02-11T13:29:10;64.20;;;22.77;;
16665;SDS011;8446;50.998;6.250;2023-02-11T13:31:41;55.78;;;25.13;;
16665;SDS011;8446;50.998;6.250;2023-02-11T13:34:21;62.13;;;22.55;;
16665;SDS011;8446;50.998;6.250;2023-02-11T13:36:52;73.03;;;24.50;;
16665;SDS011;8446;50.998;6.250;2023-02-11T13:39:21;67.15;;;21.98;;
16665;SDS011;8446;50.998;6.250;2023-02-11T13:41:48;59.25;;;22.17;;
16665;SDS011;8446;50.998;6.250;2023-02-11T13:44:21;64.22;;;23.50;;
16665;SDS011;8446;50.998;6.250;2023-02-11T13:46:53;69.18;;;23.38;;
16665;SDS011;8446;50.998;6.250;2023-02-11T13:49:22;63.53;;;23.40;;
16665;SDS011;8446;50.998;6.250;2023-02-11T13:51:49;53.10;;;20.60;;
16665;SDS011;8446;50.998;6.250;2023-02-11T13:54:19;61.13;;;22.48;;
16665;SDS011;8446;50.998;6.250;2023-02-11T13:57:13;65.78;;;23.23;;
16665;SDS011;8446;50.998;6.250;2023-02-11T13:59:46;62.75;;;22.05;;
16665;SDS011;8446;50.998;6.250;2023-02-11T14:02:24;69.40;;;24.08;;
16665;SDS011;8446;50.998;6.250;2023-02-11T14:08:14;65.65;;;20.27;;
16665;SDS011;8446;50.998;6.250;2023-02-11T14:11:00;72.53;;;21.08;;
16665;SDS011;8446;50.998;6.250;2023-02-11T14:13:27;58.00;;;21.50;;
16665;SDS011;8446;50.998;6.250;2023-02-11T14:16:06;59.78;;;22.30;;
16665;SDS011;8446;50.998;6.250;2023-02-11T14:18:37;62.75;;;23.65;;
16665;SDS011;8446;50.998;6.250;2023-02-11T14:21:09;67.90;;;25.30;;
16665;SDS011;8446;50.998;6.250;2023-02-11T14:23:38;84.32;;;25.45;;
16665;SDS011;8446;50.998;6.250;2023-02-11T14:26:13;61.45;;;22.00;;
16665;SDS011;8446;50.998;6.250;2023-02-11T14:28:48;59.37;;;21.90;;
16665;SDS011;8446;50.998;6.250;2023-02-11T14:31:20;63.47;;;20.67;;
16665;SDS011;8446;50.998;6.250;2023-02-11T14:34:11;52.33;;;22.30;;
16665;SDS011;8446;50.998;6.250;2023-02-11T14:36:44;53.10;;;19.57;;
16665;SDS011;8446;50.998;6.250;2023-02-11T14:39:16;57.55;;;21.00;;
16665;SDS011;8446;50.998;6.250;2023-02-11T14:41:46;59.78;;;22.50;;
16665;SDS011;8446;50.998;6.250;2023-02-11T14:44:15;58.27;;;20.73;;
16665;SDS011;8446;50.998;6.250;2023-02-11T14:46:45;53.58;;;20.38;;
16665;SDS011;8446;50.998;6.250;2023-02-11T14:49:15;73.55;;;23.55;;
16665;SDS011;8446;50.998;6.250;2023-02-11T14:51:47;65.53;;;22.80;;
16665;SDS011;8446;50.998;6.250;2023-02-11T14:54:14;58.40;;;22.40;;
16665;SDS011;8446;50.998;6.250;2023-02-11T14:56:42;51.92;;;20.73;;
16665;SDS011;8446;50.998;6.250;2023-02-11T14:59:15;60.40;;;20.48;;
16665;SDS011;8446;50.998;6.250;2023-02-11T15:01:45;62.28;;;23.30;;
16665;SDS011;8446;50.998;6.250;2023-02-11T15:04:21;63.45;;;21.65;;
16665;SDS011;8446;50.998;6.250;2023-02-11T15:06:49;60.70;;;21.80;;